Karapiperis New Gene — SVA2376 — position and weather

sailwx.info

Track history (hours):
 
Tides and Currents Weather Stations Pressure Air Temp Water Temp Dewpoint Dewpoint Depression Visibility Wind Speed Wind Dir Waves Ship Positions

Karapiperis New Gene

Last reported at 2018-Jan-23 18:01 UTC. Time now 2018-Jan-23 18:06 UTC.
Position N 37°57' E 023°24'.

; draft 4.5 m.

Type: Tug. MMSI: 240925000.

Date/timePositionNaut miles runAvg speedWind from/ knotsBaromVisibWave heightAir tempDewpointWater temp
2018-Jan-23 18:01N 37°57' E 023°24'1 2.5
2018-Jan-23 17:30N 37°58' E 023°26'3 6.6
2018-Jan-23 17:00N 38°00' E 023°28'4 8.5
2018-Jan-23 16:30N 37°59' E 023°33'2 3.3
2018-Jan-23 16:00N 37°58' E 023°34'0 0.0
2018-Jan-23 15:30N 37°58' E 023°34'0 0.0
2018-Jan-23 15:01N 37°58' E 023°34'0 0.0
2018-Jan-23 14:30N 37°58' E 023°34'0 0.0
2018-Jan-23 14:01N 37°58' E 023°34'0 0.0
2018-Jan-23 13:30N 37°58' E 023°34'0 0.0
2018-Jan-23 13:00N 37°58' E 023°34'0 0.0
2018-Jan-23 12:30N 37°58' E 023°34'0 0.0
2018-Jan-23 12:00N 37°58' E 023°34'0 0.0
2018-Jan-23 11:30N 37°58' E 023°34'0 0.0
2018-Jan-23 11:00N 37°58' E 023°34'0 0.0
2018-Jan-23 10:31N 37°58' E 023°34'0 0.0
2018-Jan-23 10:00N 37°58' E 023°34'0 0.0
2018-Jan-23 09:30N 37°58' E 023°34'0 0.0
2018-Jan-23 09:00N 37°58' E 023°34'0 0.0
2018-Jan-23 08:30N 37°58' E 023°34'0 0.0
2018-Jan-23 08:00N 37°58' E 023°34'0 0.0
2018-Jan-23 07:31N 37°58' E 023°34'1 2.4
2018-Jan-23 07:00N 37°57' E 023°36'0 0.2
2018-Jan-23 06:30N 37°57' E 023°36'1 2.7
2018-Jan-23 06:00N 37°56' E 023°35'2 3.3
2018-Jan-23 05:30N 37°55' E 023°35'2 3.9
2018-Jan-23 05:01N 37°57' E 023°35'1 1.9
2018-Jan-23 04:31N 37°58' E 023°34'0 0.0
2018-Jan-23 04:00N 37°58' E 023°34'0 0.0
2018-Jan-23 03:30N 37°58' E 023°34'0 0.0
2018-Jan-23 03:01N 37°58' E 023°34'0 0.0
2018-Jan-23 02:30N 37°58' E 023°34'0 0.0
2018-Jan-23 02:00N 37°58' E 023°34'0 0.0
2018-Jan-23 01:30N 37°58' E 023°34'0 0.0
2018-Jan-23 01:00N 37°58' E 023°34'0 0.0
2018-Jan-23 00:31N 37°58' E 023°34'0 0.0
2018-Jan-23 00:00N 37°58' E 023°34'0 0.0
2018-Jan-22 23:30N 37°58' E 023°34'0 0.0
2018-Jan-22 23:00N 37°58' E 023°34'0 0.0
2018-Jan-22 22:30N 37°58' E 023°34'0 0.9
2018-Jan-22 22:00N 37°57' E 023°35'0 0.9
2018-Jan-22 21:30N 37°58' E 023°34'0 0.0
2018-Jan-22 21:00N 37°58' E 023°34'0 0.0
2018-Jan-22 20:30N 37°58' E 023°34'0 0.0
2018-Jan-22 20:00N 37°58' E 023°34'0 0.0
2018-Jan-22 19:30N 37°58' E 023°34'0 0.0
2018-Jan-22 19:01N 37°58' E 023°34'0 0.0
2018-Jan-22 18:30N 37°58' E 023°34'0 0.0
2018-Jan-22 18:00N 37°58' E 023°34'0 0.0
2018-Jan-22 17:29N 37°58' E 023°34'0 0.0
2018-Jan-22 17:00N 37°58' E 023°34'0 0.0
2018-Jan-22 16:30N 37°58' E 023°34'0 0.0
2018-Jan-22 16:00N 37°58' E 023°34'1 1.6
2018-Jan-22 15:30N 37°57' E 023°35'1 2.4
2018-Jan-22 15:01N 37°56' E 023°35'1 1.1
2018-Jan-22 14:31N 37°56' E 023°35'2 4.1
2018-Jan-22 14:00N 37°58' E 023°34'1 1.8
2018-Jan-22 13:30N 37°57' E 023°35'0 0.6
2018-Jan-22 13:00N 37°57' E 023°35'0 0.0
2018-Jan-22 12:30N 37°57' E 023°35'1 1.6
2018-Jan-22 12:00N 37°58' E 023°34'0 0.0
2018-Jan-22 11:30N 37°58' E 023°34'0 0.0
2018-Jan-22 11:00N 37°58' E 023°34'0 0.0
2018-Jan-22 10:30N 37°58' E 023°34'1 2.3
2018-Jan-22 10:00N 37°58' E 023°33'0 0.9
2018-Jan-22 09:30N 37°57' E 023°34'1 1.5
2018-Jan-22 09:01N 37°58' E 023°34'0 0.0
2018-Jan-22 08:30N 37°58' E 023°34'0 0.0
2018-Jan-22 08:00N 37°58' E 023°34'0 0.0
2018-Jan-22 07:30N 37°58' E 023°34'0 0.0
2018-Jan-22 07:00N 37°58' E 023°34'0 0.0
2018-Jan-22 06:30N 37°58' E 023°34'1 2.7
2018-Jan-22 06:00N 37°58' E 023°36'1 1.9
2018-Jan-22 05:30N 37°57' E 023°36'1 1.2
2018-Jan-22 05:00N 37°57' E 023°35'1 2.2
2018-Jan-22 04:31N 37°58' E 023°34'0 0.0
2018-Jan-20 20:04N 37°58' E 023°34'0 0.0
2018-Jan-20 20:00N 37°58' E 023°34'0 0.0
2018-Jan-20 19:30N 37°58' E 023°34'0 0.0
2018-Jan-20 19:00N 37°58' E 023°34'0 0.0
2018-Jan-20 18:28N 37°58' E 023°34'0 0.0
2018-Jan-20 18:00N 37°58' E 023°34'0 0.0
2018-Jan-20 17:30N 37°58' E 023°34'0 0.0
2018-Jan-20 16:59N 37°58' E 023°34'0 0.0
2018-Jan-20 16:30N 37°58' E 023°34'0 0.0
2018-Jan-20 16:00N 37°58' E 023°34'0 0.0
2018-Jan-20 15:30N 37°58' E 023°34'0 0.0
2018-Jan-20 14:59N 37°58' E 023°34'0 0.0
2018-Jan-20 14:30N 37°58' E 023°34'0 0.0
2018-Jan-20 14:00N 37°58' E 023°34'1 1.5
2018-Jan-20 13:31N 37°57' E 023°35'2 3.3
2018-Jan-20 13:00N 37°56' E 023°35'2 3.9
2018-Jan-20 12:30N 37°58' E 023°34'0 0.0
2018-Jan-20 12:00N 37°58' E 023°34'0 0.0
2018-Jan-20 11:30N 37°58' E 023°34'0 0.0
2018-Jan-20 11:00N 37°58' E 023°34'0 0.0
2018-Jan-20 10:30N 37°58' E 023°34'0 0.0
2018-Jan-20 10:00N 37°58' E 023°34'0 0.0
2018-Jan-20 09:30N 37°58' E 023°34'0 0.0
2018-Jan-20 09:00N 37°58' E 023°34'0 0.0
2018-Jan-20 08:30N 37°58' E 023°34'0 0.0
2018-Jan-20 08:01N 37°58' E 023°34'0 0.0
2018-Jan-20 07:30N 37°58' E 023°34'0 0.0
2018-Jan-20 07:01N 37°58' E 023°34'1 1.2
2018-Jan-20 06:30N 37°57' E 023°35'0 0.4
2018-Jan-20 06:01N 37°57' E 023°35'0 0.0
2018-Jan-20 05:31N 37°57' E 023°35'0 0.1
2018-Jan-20 05:00N 37°57' E 023°35'1 1.4
2018-Jan-20 04:30N 37°58' E 023°34'1 0.0
2018-Jan-19 14:02N 37°57' E 023°35'0 5.1
2018-Jan-19 14:00N 37°57' E 023°35'1 1.7
2018-Jan-19 13:30N 37°56' E 023°35'1 2.3
2018-Jan-19 13:00N 37°58' E 023°34'1 2.8
2018-Jan-19 12:30N 37°57' E 023°36'0 0.4
2018-Jan-19 12:00N 37°58' E 023°36'2 3.3
2018-Jan-19 11:30N 37°56' E 023°36'2 5.0
2018-Jan-19 11:00N 37°58' E 023°34'0 0.7
2018-Jan-19 10:30N 37°57' E 023°34'1 2.7
2018-Jan-19 10:00N 37°57' E 023°36'2 3.3
2018-Jan-19 09:30N 37°57' E 023°34'1 1.2
2018-Jan-19 09:00N 37°58' E 023°34'0 0.1
2018-Jan-19 08:31N 37°58' E 023°34'0 0.0
2018-Jan-19 08:00N 37°58' E 023°34'0 0.0
2018-Jan-19 07:30N 37°58' E 023°34'0 0.0
2018-Jan-19 07:00N 37°58' E 023°34'1 1.0
2018-Jan-19 06:30N 37°57' E 023°35'0 0.3
2018-Jan-19 06:00N 37°57' E 023°35'1 1.2
2018-Jan-19 05:31N 37°56' E 023°35'1 2.2
2018-Jan-19 05:00N 37°58' E 023°34'0 0.0
2018-Jan-19 04:30N 37°58' E 023°34'0 0.0
2018-Jan-18 19:40N 37°57' E 023°35'1 3.7
2018-Jan-18 19:30N 37°57' E 023°35'1 2.0
2018-Jan-18 19:00N 37°56' E 023°35'1 2.4
2018-Jan-18 18:29N 37°58' E 023°34'0 0.0
2018-Jan-18 18:00N 37°58' E 023°34'0 0.0
2018-Jan-18 17:30N 37°58' E 023°34'0 0.0
2018-Jan-18 17:00N 37°58' E 023°34'0 0.0
2018-Jan-18 16:30N 37°58' E 023°34'0 0.0
2018-Jan-18 16:00N 37°58' E 023°34'1 1.8
2018-Jan-18 15:30N 37°57' E 023°33'1 1.8
2018-Jan-18 14:59N 37°58' E 023°34'0 0.0
2018-Jan-18 14:31N 37°58' E 023°34'0 0.0
2018-Jan-18 14:00N 37°58' E 023°34'0 0.0
2018-Jan-18 13:30N 37°58' E 023°34'0 0.0
2018-Jan-18 13:00N 37°58' E 023°34'0 0.0
2018-Jan-18 12:30N 37°58' E 023°34'0 0.0
2018-Jan-18 12:00N 37°58' E 023°34'1 2.1
2018-Jan-18 11:30N 37°58' E 023°33'4 8.1
2018-Jan-18 11:00N 38°01' E 023°30'4 8.9
2018-Jan-18 10:30N 37°59' E 023°25'2 3.2
2018-Jan-18 10:00N 37°58' E 023°23'0 0.7
2018-Jan-18 09:30N 37°58' E 023°23'1 1.7
2018-Jan-18 09:00N 37°57' E 023°23'1 2.6
2018-Jan-18 08:30N 37°57' E 023°25'3 6.8
2018-Jan-18 08:00N 38°00' E 023°27'4 8.8
2018-Jan-18 07:30N 37°60' E 023°33'3 6.3
2018-Jan-18 07:00N 37°57' E 023°35'0 0.7
2018-Jan-18 06:30N 37°57' E 023°35'0 0.2
2018-Jan-18 06:00N 37°57' E 023°35'0 0.1
2018-Jan-18 05:30N 37°57' E 023°35'0 0.1
2018-Jan-18 05:00N 37°57' E 023°35'0 0.1
2018-Jan-18 04:30N 37°57' E 023°35'  
Track history (hours):
 
Tides and Currents Weather Stations Pressure Air Temp Water Temp Dewpoint Dewpoint Depression Visibility Wind Speed Wind Dir Waves Ship Positions

Karapiperis New Gene

Last reported at 2018-Jan-23 18:01 UTC. Time now 2018-Jan-23 18:06 UTC.
Position N 37°57' E 023°24'.

; draft 4.5 m.

Type: Tug. MMSI: 240925000.

Date/timePositionNaut miles runAvg speedWind from/ knotsBaromVisibWave heightAir tempDewpointWater temp
2018-Jan-23 18:01N 37°57' E 023°24'1 2.5
2018-Jan-23 17:30N 37°58' E 023°26'3 6.6
2018-Jan-23 17:00N 38°00' E 023°28'4 8.5
2018-Jan-23 16:30N 37°59' E 023°33'2 3.3
2018-Jan-23 16:00N 37°58' E 023°34'0 0.0
2018-Jan-23 15:30N 37°58' E 023°34'0 0.0
2018-Jan-23 15:01N 37°58' E 023°34'0 0.0
2018-Jan-23 14:30N 37°58' E 023°34'0 0.0
2018-Jan-23 14:01N 37°58' E 023°34'0 0.0
2018-Jan-23 13:30N 37°58' E 023°34'0 0.0
2018-Jan-23 13:00N 37°58' E 023°34'0 0.0
2018-Jan-23 12:30N 37°58' E 023°34'0 0.0
2018-Jan-23 12:00N 37°58' E 023°34'0 0.0
2018-Jan-23 11:30N 37°58' E 023°34'0 0.0
2018-Jan-23 11:00N 37°58' E 023°34'0 0.0
2018-Jan-23 10:31N 37°58' E 023°34'0 0.0
2018-Jan-23 10:00N 37°58' E 023°34'0 0.0
2018-Jan-23 09:30N 37°58' E 023°34'0 0.0
2018-Jan-23 09:00N 37°58' E 023°34'0 0.0
2018-Jan-23 08:30N 37°58' E 023°34'0 0.0
2018-Jan-23 08:00N 37°58' E 023°34'0 0.0
2018-Jan-23 07:31N 37°58' E 023°34'1 2.4
2018-Jan-23 07:00N 37°57' E 023°36'0 0.2
2018-Jan-23 06:30N 37°57' E 023°36'1 2.7
2018-Jan-23 06:00N 37°56' E 023°35'2 3.3
2018-Jan-23 05:30N 37°55' E 023°35'2 3.9
2018-Jan-23 05:01N 37°57' E 023°35'1 1.9
2018-Jan-23 04:31N 37°58' E 023°34'0 0.0
2018-Jan-23 04:00N 37°58' E 023°34'0 0.0
2018-Jan-23 03:30N 37°58' E 023°34'0 0.0
2018-Jan-23 03:01N 37°58' E 023°34'0 0.0
2018-Jan-23 02:30N 37°58' E 023°34'0 0.0
2018-Jan-23 02:00N 37°58' E 023°34'0 0.0
2018-Jan-23 01:30N 37°58' E 023°34'0 0.0
2018-Jan-23 01:00N 37°58' E 023°34'0 0.0
2018-Jan-23 00:31N 37°58' E 023°34'0 0.0
2018-Jan-23 00:00N 37°58' E 023°34'0 0.0
2018-Jan-22 23:30N 37°58' E 023°34'0 0.0
2018-Jan-22 23:00N 37°58' E 023°34'0 0.0
2018-Jan-22 22:30N 37°58' E 023°34'0 0.9
2018-Jan-22 22:00N 37°57' E 023°35'0 0.9
2018-Jan-22 21:30N 37°58' E 023°34'0 0.0
2018-Jan-22 21:00N 37°58' E 023°34'0 0.0
2018-Jan-22 20:30N 37°58' E 023°34'0 0.0
2018-Jan-22 20:00N 37°58' E 023°34'0 0.0
2018-Jan-22 19:30N 37°58' E 023°34'0 0.0
2018-Jan-22 19:01N 37°58' E 023°34'0 0.0
2018-Jan-22 18:30N 37°58' E 023°34'0 0.0
2018-Jan-22 18:00N 37°58' E 023°34'0 0.0
2018-Jan-22 17:29N 37°58' E 023°34'0 0.0
2018-Jan-22 17:00N 37°58' E 023°34'0 0.0
2018-Jan-22 16:30N 37°58' E 023°34'0 0.0
2018-Jan-22 16:00N 37°58' E 023°34'1 1.6
2018-Jan-22 15:30N 37°57' E 023°35'1 2.4
2018-Jan-22 15:01N 37°56' E 023°35'1 1.1
2018-Jan-22 14:31N 37°56' E 023°35'2 4.1
2018-Jan-22 14:00N 37°58' E 023°34'1 1.8
2018-Jan-22 13:30N 37°57' E 023°35'0 0.6
2018-Jan-22 13:00N 37°57' E 023°35'0 0.0
2018-Jan-22 12:30N 37°57' E 023°35'1 1.6
2018-Jan-22 12:00N 37°58' E 023°34'0 0.0
2018-Jan-22 11:30N 37°58' E 023°34'0 0.0
2018-Jan-22 11:00N 37°58' E 023°34'0 0.0
2018-Jan-22 10:30N 37°58' E 023°34'1 2.3
2018-Jan-22 10:00N 37°58' E 023°33'0 0.9
2018-Jan-22 09:30N 37°57' E 023°34'1 1.5
2018-Jan-22 09:01N 37°58' E 023°34'0 0.0
2018-Jan-22 08:30N 37°58' E 023°34'0 0.0
2018-Jan-22 08:00N 37°58' E 023°34'0 0.0
2018-Jan-22 07:30N 37°58' E 023°34'0 0.0
2018-Jan-22 07:00N 37°58' E 023°34'0 0.0
2018-Jan-22 06:30N 37°58' E 023°34'1 2.7
2018-Jan-22 06:00N 37°58' E 023°36'1 1.9
2018-Jan-22 05:30N 37°57' E 023°36'1 1.2
2018-Jan-22 05:00N 37°57' E 023°35'1 2.2
2018-Jan-22 04:31N 37°58' E 023°34'0 0.0
2018-Jan-20 20:04N 37°58' E 023°34'0 0.0
2018-Jan-20 20:00N 37°58' E 023°34'0 0.0
2018-Jan-20 19:30N 37°58' E 023°34'0 0.0
2018-Jan-20 19:00N 37°58' E 023°34'0 0.0
2018-Jan-20 18:28N 37°58' E 023°34'0 0.0
2018-Jan-20 18:00N 37°58' E 023°34'0 0.0
2018-Jan-20 17:30N 37°58' E 023°34'0 0.0
2018-Jan-20 16:59N 37°58' E 023°34'0 0.0
2018-Jan-20 16:30N 37°58' E 023°34'0 0.0
2018-Jan-20 16:00N 37°58' E 023°34'0 0.0
2018-Jan-20 15:30N 37°58' E 023°34'0 0.0
2018-Jan-20 14:59N 37°58' E 023°34'0 0.0
2018-Jan-20 14:30N 37°58' E 023°34'0 0.0
2018-Jan-20 14:00N 37°58' E 023°34'1 1.5
2018-Jan-20 13:31N 37°57' E 023°35'2 3.3
2018-Jan-20 13:00N 37°56' E 023°35'2 3.9
2018-Jan-20 12:30N 37°58' E 023°34'0 0.0
2018-Jan-20 12:00N 37°58' E 023°34'0 0.0
2018-Jan-20 11:30N 37°58' E 023°34'0 0.0
2018-Jan-20 11:00N 37°58' E 023°34'0 0.0
2018-Jan-20 10:30N 37°58' E 023°34'0 0.0
2018-Jan-20 10:00N 37°58' E 023°34'0 0.0
2018-Jan-20 09:30N 37°58' E 023°34'0 0.0
2018-Jan-20 09:00N 37°58' E 023°34'0 0.0
2018-Jan-20 08:30N 37°58' E 023°34'0 0.0
2018-Jan-20 08:01N 37°58' E 023°34'0 0.0
2018-Jan-20 07:30N 37°58' E 023°34'0 0.0
2018-Jan-20 07:01N 37°58' E 023°34'1 1.2
2018-Jan-20 06:30N 37°57' E 023°35'0 0.4
2018-Jan-20 06:01N 37°57' E 023°35'0 0.0
2018-Jan-20 05:31N 37°57' E 023°35'0 0.1
2018-Jan-20 05:00N 37°57' E 023°35'1 1.4
2018-Jan-20 04:30N 37°58' E 023°34'1 0.0
2018-Jan-19 14:02N 37°57' E 023°35'0 5.1
2018-Jan-19 14:00N 37°57' E 023°35'1 1.7
2018-Jan-19 13:30N 37°56' E 023°35'1 2.3
2018-Jan-19 13:00N 37°58' E 023°34'1 2.8
2018-Jan-19 12:30N 37°57' E 023°36'0 0.4
2018-Jan-19 12:00N 37°58' E 023°36'2 3.3
2018-Jan-19 11:30N 37°56' E 023°36'2 5.0
2018-Jan-19 11:00N 37°58' E 023°34'0 0.7
2018-Jan-19 10:30N 37°57' E 023°34'1 2.7
2018-Jan-19 10:00N 37°57' E 023°36'2 3.3
2018-Jan-19 09:30N 37°57' E 023°34'1 1.2
2018-Jan-19 09:00N 37°58' E 023°34'0 0.1
2018-Jan-19 08:31N 37°58' E 023°34'0 0.0
2018-Jan-19 08:00N 37°58' E 023°34'0 0.0
2018-Jan-19 07:30N 37°58' E 023°34'0 0.0
2018-Jan-19 07:00N 37°58' E 023°34'1 1.0
2018-Jan-19 06:30N 37°57' E 023°35'0 0.3
2018-Jan-19 06:00N 37°57' E 023°35'1 1.2
2018-Jan-19 05:31N 37°56' E 023°35'1 2.2
2018-Jan-19 05:00N 37°58' E 023°34'0 0.0
2018-Jan-19 04:30N 37°58' E 023°34'0 0.0
2018-Jan-18 19:40N 37°57' E 023°35'1 3.7
2018-Jan-18 19:30N 37°57' E 023°35'1 2.0
2018-Jan-18 19:00N 37°56' E 023°35'1 2.4
2018-Jan-18 18:29N 37°58' E 023°34'0 0.0
2018-Jan-18 18:00N 37°58' E 023°34'0 0.0
2018-Jan-18 17:30N 37°58' E 023°34'0 0.0
2018-Jan-18 17:00N 37°58' E 023°34'0 0.0
2018-Jan-18 16:30N 37°58' E 023°34'0 0.0
2018-Jan-18 16:00N 37°58' E 023°34'1 1.8
2018-Jan-18 15:30N 37°57' E 023°33'1 1.8
2018-Jan-18 14:59N 37°58' E 023°34'0 0.0
2018-Jan-18 14:31N 37°58' E 023°34'0 0.0
2018-Jan-18 14:00N 37°58' E 023°34'0 0.0
2018-Jan-18 13:30N 37°58' E 023°34'0 0.0
2018-Jan-18 13:00N 37°58' E 023°34'0 0.0
2018-Jan-18 12:30N 37°58' E 023°34'0 0.0
2018-Jan-18 12:00N 37°58' E 023°34'1 2.1
2018-Jan-18 11:30N 37°58' E 023°33'4 8.1
2018-Jan-18 11:00N 38°01' E 023°30'4 8.9
2018-Jan-18 10:30N 37°59' E 023°25'2 3.2
2018-Jan-18 10:00N 37°58' E 023°23'0 0.7
2018-Jan-18 09:30N 37°58' E 023°23'1 1.7
2018-Jan-18 09:00N 37°57' E 023°23'1 2.6
2018-Jan-18 08:30N 37°57' E 023°25'3 6.8
2018-Jan-18 08:00N 38°00' E 023°27'4 8.8
2018-Jan-18 07:30N 37°60' E 023°33'3 6.3
2018-Jan-18 07:00N 37°57' E 023°35'0 0.7
2018-Jan-18 06:30N 37°57' E 023°35'0 0.2
2018-Jan-18 06:00N 37°57' E 023°35'0 0.1
2018-Jan-18 05:30N 37°57' E 023°35'0 0.1
2018-Jan-18 05:00N 37°57' E 023°35'0 0.1
2018-Jan-18 04:30N 37°57' E 023°35'  

Dump ship's entire track history